»·PEaware :: N13C KSNA-L45

N13C :: KSNA-L45

FLIGHT INFORMATION

Flight Status: Arrived
Operator: Privately registered:
United States
More flights under this callsign
Pilot: Alec D. (17934)
Aircraft: BEECH AIRCRAFT BONANZA
(BE35)
More flights by this aircraft type
Origin: KSNA John Wayne-Orange Co
United States
Destination: L45 Bakersfield Mun
United States
More flights between these airports :: More routes between these airports
Route: ANAHM1 LHS V165 LOPES
File this flight plan on PilotEdge
Remarks:
Altitude:
(Current/Filed)
10,000ft
Speed:
(Current/Filed)
160kts
Departed: 21-Apr-20 09:09 AM
Arrived: 21-Apr-20 10:18 AM
Distance/Time
Traveled:
114nm/1:08
Distance/Time
To Go:
Arrived

Flight Plot

Page will automatically refresh every two minutes.

Flight plan parsing failed; only flown route is shown


Map Options




Map Legend


Flown Route
Filed Route
Departure Airport
Arrival Airport
Navaid (VOR, NDB)
Fix

Horizontal Profiles

Position Reports

Time Latitude Longitude Heading Altitude Ground
Speed
21-Apr-20 08:41 33.666435 -117.873047 219 59ft 0kts
21-Apr-20 08:42 33.666435 -117.873047 219 59ft 0kts
21-Apr-20 08:43 33.666435 -117.873047 219 59ft 0kts
21-Apr-20 08:45 33.666435 -117.873047 219 59ft 0kts
21-Apr-20 08:46 33.666435 -117.873047 219 59ft 0kts
21-Apr-20 08:47 33.666435 -117.873047 219 59ft 0kts
21-Apr-20 08:48 33.666434 -117.873048 219 59ft 0kts
21-Apr-20 08:49 33.666429 -117.873052 219 59ft 0kts
21-Apr-20 08:50 33.666424 -117.873057 219 59ft 0kts
21-Apr-20 08:51 33.666420 -117.873062 219 59ft 0kts
21-Apr-20 08:52 33.666415 -117.873067 219 59ft 0kts
21-Apr-20 08:53 33.666409 -117.873072 219 59ft 0kts
21-Apr-20 08:54 33.666404 -117.873078 219 59ft 0kts
21-Apr-20 08:55 33.666399 -117.873083 219 59ft 0kts
21-Apr-20 08:56 33.666394 -117.873088 219 59ft 0kts
21-Apr-20 08:57 33.666389 -117.873093 219 59ft 0kts
21-Apr-20 08:58 33.666384 -117.873098 219 59ft 0kts
21-Apr-20 08:59 33.666378 -117.873103 219 59ft 0kts
21-Apr-20 09:00 33.666321 -117.873308 279 59ft 7kts
21-Apr-20 09:01 33.669753 -117.870613 38 59ft 18kts
21-Apr-20 09:02 33.673187 -117.866886 45 59ft 13kts
21-Apr-20 09:03 33.675553 -117.866136 26 59ft 17kts
21-Apr-20 09:04 33.679578 -117.863797 357 59ft 10kts
21-Apr-20 09:05 33.679670 -117.863816 342 59ft 0kts
21-Apr-20 09:06 33.679678 -117.863820 342 59ft 0kts
21-Apr-20 09:06 33.679683 -117.863821 342 59ft 0kts
21-Apr-20 09:08 33.679690 -117.863824 342 59ft 0kts
21-Apr-20 09:09 33.677376 -117.865903 207 59ft 57kts
21-Apr-20 09:09 33.661243 -117.881188 232 721ft 100kts
21-Apr-20 09:10 33.645831 -117.909459 237 1700ft 100kts
21-Apr-20 09:12 33.627077 -117.943102 236 2837ft 104kts
21-Apr-20 09:12 33.612367 -117.966749 234 3833ft 107kts
21-Apr-20 09:13 33.593717 -117.995166 234 4784ft 109kts
21-Apr-20 09:14 33.575859 -118.024471 283 5704ft 99kts
21-Apr-20 09:15 33.602705 -118.034308 1 6006ft 134kts
21-Apr-20 09:16 33.638281 -118.013720 27 6004ft 145kts
21-Apr-20 09:17 33.673396 -117.989348 27 6014ft 146kts
21-Apr-20 09:18 33.708512 -117.964641 27 6009ft 147kts
21-Apr-20 09:19 33.743795 -117.939482 26 6011ft 146kts
21-Apr-20 09:20 33.779273 -117.915180 27 6004ft 147kts
21-Apr-20 09:21 33.814819 -117.890434 28 5999ft 147kts
21-Apr-20 09:22 33.836677 -117.849943 70 6000ft 153kts
21-Apr-20 09:23 33.849021 -117.800730 69 6006ft 153kts
21-Apr-20 09:24 33.882604 -117.782948 358 6012ft 144kts
21-Apr-20 09:25 33.923093 -117.783803 358 6008ft 144kts
21-Apr-20 09:26 33.963429 -117.784658 358 6008ft 145kts
21-Apr-20 09:27 34.003312 -117.788140 332 6012ft 145kts
21-Apr-20 09:28 34.020639 -117.828624 294 6675ft 120kts
21-Apr-20 09:29 34.031705 -117.864398 295 7581ft 110kts
21-Apr-20 09:30 34.042286 -117.898618 295 8334ft 108kts
21-Apr-20 09:31 34.052691 -117.932354 295 9024ft 106kts
21-Apr-20 09:32 34.062824 -117.965342 297 9705ft 103kts
21-Apr-20 09:33 34.073510 -117.999856 296 10010ft 124kts
21-Apr-20 09:34 34.086305 -118.041591 295 10011ft 138kts
21-Apr-20 09:35 34.099877 -118.085861 295 10009ft 142kts
21-Apr-20 09:36 34.113595 -118.130624 296 9999ft 142kts
21-Apr-20 09:37 34.127407 -118.175782 294 9990ft 142kts
21-Apr-20 09:38 34.141173 -118.220813 296 9986ft 143kts
21-Apr-20 09:39 34.155261 -118.265434 306 10002ft 140kts
21-Apr-20 09:40 34.187916 -118.288080 335 9998ft 137kts
21-Apr-20 09:41 34.222428 -118.308153 335 10007ft 137kts
21-Apr-20 09:42 34.258295 -118.328913 334 10005ft 147kts
21-Apr-20 09:43 34.294363 -118.349871 335 10033ft 139kts
21-Apr-20 09:44 34.328983 -118.369987 335 10039ft 137kts
21-Apr-20 09:45 34.364815 -118.390855 335 10025ft 145kts
21-Apr-20 09:46 34.400249 -118.411482 334 10032ft 138kts
21-Apr-20 09:47 34.434625 -118.431573 335 10040ft 137kts
21-Apr-20 09:48 34.469043 -118.451647 335 10041ft 137kts
21-Apr-20 09:49 34.503534 -118.471810 335 10046ft 137kts
21-Apr-20 09:50 34.538142 -118.492047 335 10054ft 138kts
21-Apr-20 09:51 34.572974 -118.512441 335 10058ft 140kts
21-Apr-20 09:52 34.609978 -118.534107 335 10057ft 150kts
21-Apr-20 09:53 34.647568 -118.556161 334 10071ft 149kts
21-Apr-20 09:54 34.684771 -118.577487 341 9943ft 143kts
21-Apr-20 09:55 34.722308 -118.590902 344 9948ft 138kts
21-Apr-20 09:56 34.759139 -118.604082 344 9971ft 138kts
21-Apr-20 09:57 34.797453 -118.617650 344 9978ft 151kts
21-Apr-20 09:58 34.837730 -118.632005 344 9973ft 148kts
21-Apr-20 09:59 34.878280 -118.646468 344 9972ft 152kts
21-Apr-20 10:00 34.917277 -118.660452 344 9975ft 142kts
21-Apr-20 10:01 34.954877 -118.673861 344 9981ft 140kts
21-Apr-20 10:02 34.992336 -118.687253 344 9988ft 139kts
21-Apr-20 10:03 35.028992 -118.700543 339 9989ft 132kts
21-Apr-20 10:04 35.059598 -118.729194 323 9464ft 153kts
21-Apr-20 10:05 35.094280 -118.763976 322 8207ft 162kts
21-Apr-20 10:06 35.128571 -118.798384 322 6926ft 158kts
21-Apr-20 10:07 35.162433 -118.832394 322 5437ft 155kts
21-Apr-20 10:08 35.195463 -118.865596 321 3903ft 152kts
21-Apr-20 10:09 35.226160 -118.896457 320 2997ft 126kts
21-Apr-20 10:10 35.251583 -118.922386 319 2745ft 121kts
21-Apr-20 10:11 35.277307 -118.949585 320 2144ft 120kts
21-Apr-20 10:12 35.303661 -118.973123 326 1659ft 113kts
21-Apr-20 10:13 35.321374 -119.000882 270 1648ft 112kts
21-Apr-20 10:14 35.329155 -119.032483 7 1373ft 110kts
21-Apr-20 10:15 35.316340 -119.011734 172 1029ft 107kts
21-Apr-20 10:16 35.313141 -118.994805 358 542ft 82kts
21-Apr-20 10:17 35.324489 -118.996269 265 379ft 4kts
21-Apr-20 10:18 35.325498 -118.997364 267 379ft 0kts
21-Apr-20 10:19 35.325497 -118.997367 267 379ft 0kts
21-Apr-20 10:20 35.325497 -118.997367 267 379ft 0kts
21-Apr-20 10:21 35.325497 -118.997367 267 379ft 0kts
21-Apr-20 10:22 35.325497 -118.997367 267 379ft 0kts
21-Apr-20 10:23 35.325497 -118.997367 267 379ft 0kts
21-Apr-20 10:24 35.325497 -118.997367 267 379ft 0kts
21-Apr-20 10:25 35.325497 -118.997367 267 379ft 0kts
21-Apr-20 10:26 35.325497 -118.997367 267 379ft 0kts
21-Apr-20 10:27 35.325497 -118.997367 267 379ft 0kts

Navigation Log

Ident Type
Flight plan parsing failed, navigation log unavailable